• Join FlightAware (Why Join?)
  • Login
  • US Flag 
08:03AM EDT


 

Airport Tracker/Info


-or-


 

Live Flight TrackerFlight Track Log ✈ JBU56 ✈ 17-Jun-2013 ✈ KJFK - KBTV

Flight Track Log - Related Links

Times and Time Zones

All times are in EDT time to prevent confusion due to time zone crossing. See the JBU56 flight status page for this flight to view local times or setup timezone preferences in your user account.

Time Position Orientation Groundspeed Altitude Reporting Facility
EDT Latitude Longitude Course Direction KTS MPH feet Rate Location/Type
09:39AM 40.5833 -73.7833 27° Northeast 216 249 2,300  Level New York TRACON
09:40AM 40.6000 -73.7000 75° East 277 319 4,900 3,000 Climbing New York TRACON
09:41AM 40.9636 -73.5932 21° North  Level FlightAware Approximate
09:41AM 40.6500 -73.6167 52° Northeast 299 344 8,300  Level New York TRACON
09:42AM 41.0093 -73.5704 21° North  Level FlightAware Approximate
09:42AM 40.7167 -73.5333 43° Northeast 313 360 11,000  Level New York TRACON
09:43AM 41.0532 -73.5423 27° Northeast  Level FlightAware Approximate
09:43AM 40.7833 -73.4667 37° Northeast 347 399 13,000  Level New York TRACON
09:44AM 41.1328 -73.4893 27° Northeast  Level FlightAware Approximate
09:45AM 40.9392 -73.4431 North 360 414 16,600  Level Boston Center
09:46AM 41.0331 -73.4197 11° North 372 428 18,700 2,100 Climbing Boston Center
09:47AM 41.1564 -73.3939 North 382 440 20,800 1,140 Climbing Boston Center
09:48AM 41.2692 -73.3681 10° North 395 455 21,000 60 Climbing Boston Center
09:49AM 41.3839 -73.3419 10° North 408 470 21,000  Level Boston Center
09:50AM 41.4964 -73.3353 North 408 470 21,000  Level Boston Center
09:51AM 41.6069 -73.3286 North 402 463 21,000  Level Boston Center
09:52AM 41.7197 -73.3217 North 402 463 21,000  Level Boston Center
09:53AM 41.8531 -73.3153 North 402 463 21,000  Level Boston Center
09:54AM 41.9678 -73.3086 North 407 468 21,000  Level Boston Center
09:55AM 42.0825 -73.3017 North 407 468 21,000  Level Boston Center
09:56AM 42.1972 -73.2947 North 407 468 21,000  Level Boston Center
09:57AM 42.3139 -73.2881 North 407 468 21,000  Level Boston Center
09:58AM 42.4308 -73.2728 North 407 468 21,000  Level Boston Center
09:59AM 42.5517 -73.2686 North 407 468 21,000  Level Boston Center
10:00AM 42.6558 -73.2672 North 402 463 21,000  Level Boston Center
10:01AM 42.7789 -73.2603 North 402 463 21,000  Level Boston Center
10:02AM 42.8936 -73.2533 North 402 463 21,000  Level Boston Center
10:03AM 43.0061 -73.2492 North 402 463 21,000  Level Boston Center
10:04AM 43.1167 -73.2392 North 402 463 21,000  Level Boston Center
10:05AM 43.2272 -73.2322 North 402 463 21,000  Level Boston Center
10:06AM 43.3397 -73.2253 North 402 463 21,000  Level Boston Center
10:07AM 43.4419 -73.2178 North 402 463 21,000  Level Boston Center
10:08AM 43.5564 -73.2108 North 402 463 21,000 -300 Level Boston Center
10:09AM 43.6858 -73.2039 North 407 468 20,400 -1,140 Descending Boston Center
10:10AM 43.7964 -73.1967 North 400 460 18,800 -1,620 Descending Boston Center
10:11AM 43.9047 -73.1892 North 400 460 17,200 -1,920 Descending Boston Center
10:12AM 44.0108 -73.1847 North 395 455 15,000 -2,340 Descending Boston Center
10:13AM 44.1108 -73.1919 357° North 371 427 12,600 -2,100 Descending Boston Center
10:14AM 44.2067 -73.2133 351° North 355 409 10,800 -1,500 Descending Boston Center
10:15AM 44.2794 -73.2461 342° North 301 346 9,700 -1,440 Descending Boston Center
10:16AM 44.3478 -73.2761 343° North 270 311 8,000 -2,100 Descending Boston Center
10:17AM 44.4186 -73.3092 342° North 260 299 5,600 -2,280 Descending Boston Center
10:18AM 44.4892 -73.3364 345° North 260 299 3,500 -1,440 Descending Boston Center
10:19AM 44.5417 -73.2847 35° Northeast 228 262 2,800 -1,080 Descending Boston Center
10:20AM 44.5169 -73.2233 119° Southeast 133 153 1,400 -1,440 Descending Boston Center